UAE538 OMDB-VAAH
Flight info
| Callsign | UAE538 |
|---|---|
| Flight time | N/A |
| Altitude | 41000 |
| Route | IVURO M677 LALDO B505 NADSO B524 ALPOR M504 TELEM N893 VASLA VASLA1B |
| Aircraft | A359/H-SDE2E3GHIJ3J4J5LM1ORWXY/LB1D1 |
Departure
| Time | 2026-04-26 01:46 |
|---|---|
| Airport | Dubai International Airport (OMDB) |
Arrival
| Time | N/A |
|---|---|
| Airport | Sardar Vallabh Patel International Airport (VAAH) |
| Time | Latitude | Longitude | Altitude | Speed | Heading |
|---|---|---|---|---|---|
| 2026-04-26 01:23 | 25.24849 | 55.36377 | 28 ft | 0 kts | 210° |
| 2026-04-26 01:35 | 25.24858 | 55.36383 | 27 ft | 4 kts | 216° |
| 2026-04-26 01:35 | 25.24881 | 55.36399 | 26 ft | 4 kts | 211° |
| 2026-04-26 01:35 | 25.24904 | 55.36414 | 26 ft | 4 kts | 221° |
| 2026-04-26 01:35 | 25.24913 | 55.36434 | 26 ft | 4 kts | 290° |
| 2026-04-26 01:36 | 25.24900 | 55.36460 | 24 ft | 3 kts | 301° |
| 2026-04-26 01:36 | 25.24899 | 55.36462 | 26 ft | 0 kts | 301° |
| 2026-04-26 01:38 | 25.24899 | 55.36461 | 26 ft | 1 kts | 301° |
| 2026-04-26 01:38 | 25.24918 | 55.36427 | 26 ft | 9 kts | 301° |
| 2026-04-26 01:38 | 25.24955 | 55.36360 | 28 ft | 11 kts | 301° |
| 2026-04-26 01:39 | 25.25000 | 55.36277 | 28 ft | 14 kts | 301° |
| 2026-04-26 01:39 | 25.25034 | 55.36214 | 28 ft | 15 kts | 301° |
| 2026-04-26 01:39 | 25.25115 | 55.36073 | 28 ft | 18 kts | 303° |
| 2026-04-26 01:39 | 25.25159 | 55.35994 | 28 ft | 18 kts | 300° |
| 2026-04-26 01:40 | 25.25218 | 55.35883 | 28 ft | 15 kts | 301° |
| 2026-04-26 01:40 | 25.25270 | 55.35789 | 28 ft | 14 kts | 301° |
| 2026-04-26 01:40 | 25.25309 | 55.35720 | 28 ft | 6 kts | 303° |
| 2026-04-26 01:40 | 25.25341 | 55.35692 | 28 ft | 6 kts | 338° |
| 2026-04-26 01:41 | 25.25381 | 55.35695 | 28 ft | 7 kts | 17° |
| 2026-04-26 01:41 | 25.25430 | 55.35722 | 28 ft | 9 kts | 30° |
| 2026-04-26 01:41 | 25.25489 | 55.35762 | 28 ft | 9 kts | 31° |
| 2026-04-26 01:41 | 25.25506 | 55.35773 | 28 ft | 0 kts | 31° |
| 2026-04-26 01:44 | 25.25507 | 55.35774 | 28 ft | 1 kts | 31° |
| 2026-04-26 01:44 | 25.25531 | 55.35790 | 28 ft | 6 kts | 30° |
| 2026-04-26 01:44 | 25.25573 | 55.35819 | 28 ft | 8 kts | 39° |
| 2026-04-26 01:44 | 25.25588 | 55.35880 | 28 ft | 9 kts | 98° |
| 2026-04-26 01:45 | 25.25560 | 55.35945 | 28 ft | 7 kts | 121° |
| 2026-04-26 01:45 | 25.25554 | 55.35955 | 28 ft | 0 kts | 121° |
| 2026-04-26 01:45 | 25.25499 | 55.36054 | 28 ft | 45 kts | 122° |
| 2026-04-26 01:45 | 25.25205 | 55.36582 | 29 ft | 114 kts | 122° |
| 2026-04-26 01:46 | 25.24685 | 55.37517 | 29 ft | 171 kts | 122° |
| 2026-04-26 01:46 | 25.23999 | 55.38729 | 453 ft | 188 kts | 122° |
| 2026-04-26 01:46 | 25.23329 | 55.39949 | 1239 ft | 190 kts | 120° |
| 2026-04-26 01:46 | 25.22584 | 55.41303 | 1563 ft | 223 kts | 120° |
| 2026-04-26 01:47 | 25.21730 | 55.42840 | 2050 ft | 243 kts | 120° |
| 2026-04-26 01:47 | 25.20838 | 55.44444 | 2920 ft | 246 kts | 120° |
| 2026-04-26 01:47 | 25.20170 | 55.46165 | 3835 ft | 244 kts | 99° |
| 2026-04-26 01:47 | 25.20009 | 55.48020 | 4720 ft | 243 kts | 90° |
| 2026-04-26 01:48 | 25.19969 | 55.49905 | 5506 ft | 247 kts | 90° |
| 2026-04-26 01:48 | 25.19936 | 55.51818 | 6252 ft | 251 kts | 90° |
| 2026-04-26 01:48 | 25.19895 | 55.53740 | 6953 ft | 254 kts | 91° |
| 2026-04-26 01:48 | 25.19847 | 55.55707 | 7626 ft | 259 kts | 91° |
| 2026-04-26 01:49 | 25.19795 | 55.57712 | 8275 ft | 264 kts | 91° |
| 2026-04-26 01:49 | 25.19782 | 55.59758 | 8982 ft | 269 kts | 85° |
| 2026-04-26 01:49 | 25.20336 | 55.61725 | 9668 ft | 273 kts | 56° |
| 2026-04-26 01:49 | 25.21653 | 55.63317 | 10028 ft | 291 kts | 38° |
| 2026-04-26 01:50 | 25.23257 | 55.64788 | 10437 ft | 307 kts | 37° |
| 2026-04-26 01:50 | 25.24927 | 55.66301 | 11094 ft | 313 kts | 38° |
| 2026-04-26 01:50 | 25.26616 | 55.67854 | 11824 ft | 318 kts | 38° |
| 2026-04-26 01:50 | 25.28321 | 55.69439 | 12558 ft | 322 kts | 38° |
| 2026-04-26 01:51 | 25.30046 | 55.71052 | 13296 ft | 327 kts | 39° |
| 2026-04-26 01:51 | 25.31788 | 55.72685 | 13994 ft | 331 kts | 39° |
| 2026-04-26 01:51 | 25.33533 | 55.74384 | 14632 ft | 337 kts | 43° |
| 2026-04-26 01:51 | 25.34978 | 55.76445 | 15254 ft | 342 kts | 61° |
| 2026-04-26 01:52 | 25.35787 | 55.78892 | 15888 ft | 347 kts | 79° |
| 2026-04-26 01:52 | 25.36149 | 55.81580 | 16242 ft | 362 kts | 85° |
| 2026-04-26 01:52 | 25.36422 | 55.84414 | 16508 ft | 378 kts | 85° |
| 2026-04-26 01:52 | 25.36705 | 55.87368 | 16782 ft | 393 kts | 85° |
| 2026-04-26 01:53 | 25.37008 | 55.90419 | 17091 ft | 406 kts | 85° |
| 2026-04-26 01:53 | 25.37220 | 55.93559 | 17548 ft | 411 kts | 93° |
| 2026-04-26 01:53 | 25.36836 | 55.96682 | 18105 ft | 412 kts | 105° |
| 2026-04-26 01:53 | 25.36180 | 55.99784 | 18604 ft | 416 kts | 106° |
| 2026-04-26 01:54 | 25.35492 | 56.02911 | 19098 ft | 421 kts | 106° |
| 2026-04-26 01:54 | 25.34801 | 56.06071 | 19607 ft | 425 kts | 105° |
| 2026-04-26 01:54 | 25.34108 | 56.09263 | 20117 ft | 430 kts | 105° |
| 2026-04-26 01:54 | 25.33408 | 56.12495 | 20619 ft | 434 kts | 105° |
| 2026-04-26 01:55 | 25.32778 | 56.15784 | 21143 ft | 439 kts | 101° |
| 2026-04-26 01:55 | 25.32351 | 56.19145 | 21664 ft | 444 kts | 98° |
| 2026-04-26 01:55 | 25.32043 | 56.22551 | 22148 ft | 448 kts | 96° |
| 2026-04-26 01:55 | 25.31784 | 56.26012 | 22617 ft | 453 kts | 95° |
| 2026-04-26 01:56 | 25.31536 | 56.29492 | 23108 ft | 457 kts | 95° |
| 2026-04-26 01:56 | 25.31279 | 56.33009 | 23596 ft | 460 kts | 95° |
| 2026-04-26 01:56 | 25.31012 | 56.36500 | 24026 ft | 463 kts | 96° |
| 2026-04-26 01:56 | 25.30728 | 56.40062 | 24486 ft | 466 kts | 96° |
| 2026-04-26 01:57 | 25.30509 | 56.43648 | 24971 ft | 469 kts | 93° |
| 2026-04-26 01:57 | 25.30397 | 56.47268 | 25453 ft | 472 kts | 92° |
| 2026-04-26 01:57 | 25.30328 | 56.50908 | 25930 ft | 476 kts | 92° |
| 2026-04-26 01:57 | 25.30265 | 56.54576 | 26387 ft | 478 kts | 92° |
| 2026-04-26 01:58 | 25.30034 | 56.58247 | 26790 ft | 480 kts | 99° |
| 2026-04-26 01:58 | 25.29296 | 56.61864 | 27116 ft | 484 kts | 110° |
| 2026-04-26 01:58 | 25.28170 | 56.65376 | 27565 ft | 487 kts | 113° |
| 2026-04-26 01:58 | 25.26917 | 56.68861 | 28062 ft | 489 kts | 114° |
| 2026-04-26 01:59 | 25.25595 | 56.72343 | 28520 ft | 491 kts | 115° |
| 2026-04-26 01:59 | 25.24244 | 56.75828 | 28966 ft | 494 kts | 115° |
| 2026-04-26 01:59 | 25.22886 | 56.79324 | 29393 ft | 497 kts | 115° |
| 2026-04-26 01:59 | 25.21537 | 56.82815 | 29834 ft | 501 kts | 115° |
| 2026-04-26 02:00 | 25.20174 | 56.86363 | 30171 ft | 505 kts | 115° |
| 2026-04-26 02:00 | 25.18804 | 56.89946 | 30441 ft | 509 kts | 115° |
| 2026-04-26 02:00 | 25.17426 | 56.93562 | 30800 ft | 512 kts | 115° |
| 2026-04-26 02:00 | 25.16041 | 56.97200 | 31156 ft | 514 kts | 115° |
| 2026-04-26 02:01 | 25.14651 | 57.00847 | 31482 ft | 517 kts | 114° |
| 2026-04-26 02:01 | 25.13255 | 57.04512 | 31830 ft | 519 kts | 114° |
| 2026-04-26 02:01 | 25.11853 | 57.08185 | 32133 ft | 522 kts | 114° |
| 2026-04-26 02:01 | 25.10439 | 57.11885 | 32426 ft | 524 kts | 114° |
| 2026-04-26 02:02 | 25.09015 | 57.15610 | 32725 ft | 527 kts | 114° |
| 2026-04-26 02:02 | 25.07588 | 57.19334 | 33021 ft | 529 kts | 114° |
| 2026-04-26 02:02 | 25.06151 | 57.23083 | 33300 ft | 531 kts | 114° |
| 2026-04-26 02:02 | 25.04710 | 57.26839 | 33551 ft | 534 kts | 114° |
| 2026-04-26 02:03 | 25.03261 | 57.30612 | 33890 ft | 534 kts | 114° |
| 2026-04-26 02:03 | 25.01813 | 57.34381 | 34190 ft | 534 kts | 114° |
| 2026-04-26 02:03 | 25.00363 | 57.38149 | 34434 ft | 535 kts | 114° |
| 2026-04-26 02:03 | 24.98912 | 57.41919 | 34802 ft | 533 kts | 113° |
| 2026-04-26 02:04 | 24.97478 | 57.45639 | 35069 ft | 534 kts | 113° |
| 2026-04-26 02:04 | 24.96023 | 57.49411 | 35297 ft | 535 kts | 113° |
| 2026-04-26 02:04 | 24.94564 | 57.53193 | 35524 ft | 536 kts | 113° |
| 2026-04-26 02:04 | 24.93100 | 57.56980 | 35758 ft | 537 kts | 113° |
| 2026-04-26 02:05 | 24.91633 | 57.60774 | 35997 ft | 538 kts | 113° |
| 2026-04-26 02:05 | 24.90161 | 57.64575 | 36223 ft | 540 kts | 112° |
| 2026-04-26 02:05 | 24.88692 | 57.68368 | 36515 ft | 538 kts | 113° |
| 2026-04-26 02:05 | 24.87222 | 57.72159 | 36797 ft | 538 kts | 112° |
| 2026-04-26 02:06 | 24.85745 | 57.75965 | 37010 ft | 540 kts | 112° |
| 2026-04-26 02:06 | 24.84273 | 57.79774 | 37192 ft | 541 kts | 112° |
| 2026-04-26 02:06 | 24.83088 | 57.83693 | 37384 ft | 540 kts | 102° |
| 2026-04-26 02:06 | 24.82162 | 57.87710 | 37553 ft | 542 kts | 101° |
| 2026-04-26 02:07 | 24.81305 | 57.91742 | 37757 ft | 542 kts | 101° |
| 2026-04-26 02:07 | 24.80481 | 57.95793 | 38015 ft | 542 kts | 100° |
| 2026-04-26 02:07 | 24.79671 | 57.99842 | 38239 ft | 542 kts | 100° |
| 2026-04-26 02:07 | 24.78872 | 58.03844 | 38402 ft | 543 kts | 100° |
| 2026-04-26 02:08 | 24.78056 | 58.07909 | 38567 ft | 544 kts | 100° |
| 2026-04-26 02:08 | 24.77233 | 58.11974 | 38745 ft | 544 kts | 100° |
| 2026-04-26 02:08 | 24.76406 | 58.16034 | 38954 ft | 543 kts | 100° |
| 2026-04-26 02:08 | 24.75577 | 58.20083 | 39162 ft | 542 kts | 100° |
| 2026-04-26 02:09 | 24.74748 | 58.24121 | 39397 ft | 540 kts | 100° |
| 2026-04-26 02:09 | 24.73918 | 58.28155 | 39604 ft | 539 kts | 100° |
| 2026-04-26 02:09 | 24.73091 | 58.32174 | 39791 ft | 538 kts | 100° |
| 2026-04-26 02:09 | 24.72263 | 58.36190 | 39953 ft | 538 kts | 100° |
| 2026-04-26 02:10 | 24.71437 | 58.40192 | 40117 ft | 537 kts | 100° |
| 2026-04-26 02:10 | 24.70610 | 58.44198 | 40279 ft | 537 kts | 100° |
| 2026-04-26 02:10 | 24.69782 | 58.48199 | 40448 ft | 536 kts | 100° |
| 2026-04-26 02:10 | 24.68955 | 58.52190 | 40644 ft | 534 kts | 100° |
| 2026-04-26 02:11 | 24.68129 | 58.56170 | 40815 ft | 533 kts | 100° |
| 2026-04-26 02:11 | 24.66486 | 58.64074 | 40841 ft | 533 kts | 100° |
| 2026-04-26 02:12 | 24.64829 | 58.72025 | 40840 ft | 533 kts | 100° |
| 2026-04-26 02:12 | 24.63165 | 58.79982 | 40840 ft | 533 kts | 101° |
| 2026-04-26 02:13 | 24.61499 | 58.87928 | 40834 ft | 533 kts | 101° |
| 2026-04-26 02:13 | 24.59830 | 58.95870 | 40834 ft | 533 kts | 101° |
| 2026-04-26 02:14 | 24.58156 | 59.03810 | 40835 ft | 533 kts | 101° |
| 2026-04-26 02:14 | 24.56490 | 59.11687 | 40836 ft | 531 kts | 101° |
| 2026-04-26 02:15 | 24.54817 | 59.19581 | 40834 ft | 530 kts | 101° |
| 2026-04-26 02:15 | 24.53143 | 59.27459 | 40831 ft | 530 kts | 101° |
| 2026-04-26 02:16 | 24.51461 | 59.35345 | 40832 ft | 529 kts | 101° |
| 2026-04-26 02:16 | 24.49788 | 59.43160 | 40835 ft | 528 kts | 101° |
| 2026-04-26 02:17 | 24.48107 | 59.51001 | 40832 ft | 527 kts | 101° |
| 2026-04-26 02:17 | 24.46424 | 59.58829 | 40834 ft | 527 kts | 101° |
| 2026-04-26 02:18 | 24.44734 | 59.66672 | 40838 ft | 527 kts | 101° |
| 2026-04-26 02:18 | 24.43040 | 59.74502 | 40831 ft | 526 kts | 101° |
| 2026-04-26 02:19 | 24.41348 | 59.82310 | 40837 ft | 526 kts | 101° |
| 2026-04-26 02:19 | 24.39665 | 59.90055 | 40836 ft | 526 kts | 101° |
| 2026-04-26 02:20 | 24.37966 | 59.97858 | 40831 ft | 525 kts | 101° |
| 2026-04-26 02:20 | 24.36263 | 60.05654 | 40838 ft | 525 kts | 101° |
| 2026-04-26 02:21 | 24.34557 | 60.13448 | 40837 ft | 525 kts | 101° |
| 2026-04-26 02:21 | 24.32846 | 60.21250 | 40835 ft | 525 kts | 101° |
| 2026-04-26 02:22 | 24.31132 | 60.29039 | 40835 ft | 524 kts | 101° |
| 2026-04-26 02:22 | 24.29430 | 60.36756 | 40830 ft | 523 kts | 101° |
| 2026-04-26 02:23 | 24.27717 | 60.44504 | 40837 ft | 523 kts | 101° |
| 2026-04-26 02:23 | 24.26003 | 60.52243 | 40843 ft | 522 kts | 102° |
| 2026-04-26 02:24 | 24.24286 | 60.59968 | 40837 ft | 521 kts | 102° |
| 2026-04-26 02:24 | 24.22567 | 60.67688 | 40832 ft | 521 kts | 102° |
| 2026-04-26 02:25 | 24.20843 | 60.75405 | 40853 ft | 521 kts | 102° |
| 2026-04-26 02:25 | 24.19123 | 60.83112 | 40842 ft | 521 kts | 102° |
| 2026-04-26 02:26 | 24.17397 | 60.90824 | 40842 ft | 521 kts | 102° |
| 2026-04-26 02:26 | 24.15961 | 60.97223 | 40834 ft | 521 kts | 102° |
| 2026-04-26 02:27 | 24.14230 | 61.04921 | 40854 ft | 520 kts | 102° |
| 2026-04-26 02:27 | 24.12215 | 61.13859 | 40838 ft | 519 kts | 102° |
| 2026-04-26 02:28 | 24.10762 | 61.20290 | 40854 ft | 519 kts | 102° |
| 2026-04-26 02:28 | 24.09035 | 61.27913 | 40835 ft | 519 kts | 102° |
| 2026-04-26 02:29 | 24.07726 | 61.35661 | 40842 ft | 517 kts | 93° |
| 2026-04-26 02:29 | 24.07165 | 61.43486 | 40858 ft | 516 kts | 92° |
| 2026-04-26 02:30 | 24.06715 | 61.51327 | 40845 ft | 516 kts | 91° |
| 2026-04-26 02:30 | 24.06268 | 61.59170 | 40847 ft | 516 kts | 91° |
| 2026-04-26 02:31 | 24.05803 | 61.67008 | 40855 ft | 516 kts | 92° |
| 2026-04-26 02:31 | 24.05326 | 61.74848 | 40840 ft | 516 kts | 92° |
| 2026-04-26 02:32 | 24.04843 | 61.82682 | 40848 ft | 515 kts | 92° |
| 2026-04-26 02:32 | 24.04358 | 61.90502 | 40851 ft | 515 kts | 92° |
| 2026-04-26 02:33 | 24.03871 | 61.98307 | 40838 ft | 514 kts | 92° |
| 2026-04-26 02:33 | 24.03380 | 62.06115 | 40850 ft | 514 kts | 92° |
| 2026-04-26 02:34 | 24.02883 | 62.13931 | 40854 ft | 514 kts | 92° |
| 2026-04-26 02:34 | 24.02388 | 62.21678 | 40860 ft | 514 kts | 92° |
| 2026-04-26 02:35 | 24.01885 | 62.29479 | 40845 ft | 514 kts | 93° |
| 2026-04-26 02:35 | 24.01377 | 62.37285 | 40862 ft | 514 kts | 93° |
| 2026-04-26 02:36 | 24.00867 | 62.45075 | 40857 ft | 514 kts | 93° |
| 2026-04-26 02:36 | 24.00352 | 62.52871 | 40854 ft | 514 kts | 93° |